Time;durP1;ratioP1;P1;durP2;ratioP2;P2;SDS_P1;SDS_P2;PMS_P1;PMS_P2;Temp;Humidity;BMP_temperature;BMP_pressure;BME280_temperature;BME280_humidity;BME280_pressure;Samples;Min_cycle;Max_cycle;Signal;HPM_P1;HPM_P2
2022/02/06 00:00:49;;;;;;;12.57;4.90;;;7.50;99.90;;;;;;5053848;28;20033;-72
2022/02/06 00:03:16;;;;;;;;;;;7.40;99.90;;;;;;5036661;28;20053;-72
2022/02/06 00:05:44;;;;;;;14.33;5.03;;;7.40;99.90;;;;;;5035934;28;19905;-72
2022/02/06 00:08:12;;;;;;;15.90;5.53;;;7.40;99.90;;;;;;5053794;28;20094;-72
2022/02/06 00:10:38;;;;;;;13.57;4.37;;;7.40;99.90;;;;;;5053701;28;20029;-72
2022/02/06 00:13:05;;;;;;;11.53;4.47;;;7.40;99.90;;;;;;5053461;28;20045;-72
2022/02/06 00:15:31;;;;;;;13.97;3.97;;;7.40;99.90;;;;;;5053550;28;20029;-72
2022/02/06 00:17:57;;;;;;;12.23;4.00;;;7.40;99.90;;;;;;5053400;28;20033;-72
2022/02/06 00:20:30;;;;;;;15.97;4.67;;;7.40;99.90;;;;;;5053578;28;20024;-72
2022/02/06 00:22:59;;;;;;;14.10;3.93;;;7.40;99.90;;;;;;5053482;28;20033;-72
2022/02/06 00:25:36;;;;;;;;;;;7.50;99.90;;;;;;5053796;28;20075;-72
2022/02/06 00:30:56;;;;;;;17.97;4.93;;;7.50;99.90;;;;;;5053362;28;20497;-72
2022/02/06 00:41:15;;;;;;;17.13;4.47;;;7.50;99.90;;;;;;5053081;28;20063;-72
2022/02/06 00:43:42;;;;;;;;;;;7.50;99.90;;;;;;5053381;28;20028;-72
2022/02/06 00:46:09;;;;;;;16.00;5.57;;;7.50;99.90;;;;;;5053098;28;19909;-72
2022/02/06 00:48:40;;;;;;;15.00;5.17;;;7.50;99.90;;;;;;5053052;28;20033;-72
2022/02/06 00:51:17;;;;;;;16.40;5.00;;;7.50;99.90;;;;;;5053093;28;20028;-72
2022/02/06 00:53:43;;;;;;;16.47;5.07;;;7.50;99.90;;;;;;5052963;28;20478;-72
2022/02/06 00:56:10;;;;;;;14.23;4.17;;;7.50;99.90;;;;;;5052785;28;20528;-72
2022/02/06 00:58:36;;;;;;;14.40;3.63;;;7.60;99.90;;;;;;5052668;28;20064;-72
2022/02/06 01:01:02;;;;;;;13.93;4.03;;;7.60;99.90;;;;;;5052861;28;20033;-72
2022/02/06 01:03:28;;;;;;;16.83;5.10;;;7.60;99.90;;;;;;5052613;28;20132;-72
2022/02/06 01:05:55;;;;;;;13.03;4.03;;;7.60;99.90;;;;;;5052634;28;20115;-72
2022/02/06 01:08:21;;;;;;;14.87;3.90;;;7.60;99.90;;;;;;5052703;28;20040;-72
2022/02/06 01:10:47;;;;;;;11.40;3.63;;;7.60;99.90;;;;;;5052703;28;20075;-69
2022/02/06 01:13:29;;;;;;;13.50;3.70;;;7.60;99.90;;;;;;5052454;28;20163;-71
2022/02/06 01:16:17;;;;;;;11.37;3.67;;;7.60;99.90;;;;;;5052525;28;20033;-72
2022/02/06 01:18:52;;;;;;;12.60;3.80;;;7.60;99.90;;;;;;5052388;28;20087;-72
2022/02/06 01:21:31;;;;;;;11.27;4.30;;;7.70;99.90;;;;;;5052415;28;20025;-72
2022/02/06 01:24:03;;;;;;;15.57;4.60;;;7.60;99.90;;;;;;5052200;28;20110;-72
2022/02/06 01:26:47;;;;;;;12.37;4.10;;;7.60;99.90;;;;;;5052253;28;20040;-72
2022/02/06 01:31:57;;;;;;;10.43;3.40;;;7.70;99.90;;;;;;5052272;28;20036;-72
2022/02/06 01:34:33;;;;;;;17.40;4.40;;;7.70;99.90;;;;;;5034232;28;20033;-72
2022/02/06 01:45:29;;;;;;;12.00;3.77;;;7.70;99.90;;;;;;5051637;28;20116;-72
2022/02/06 02:27:42;;;;;;;22.13;5.13;;;7.50;99.90;;;;;;5051155;28;20044;-72
2022/02/06 02:44:25;;;;;;;9.17;3.03;;;7.50;99.90;;;;;;5050697;28;20044;-72
2022/02/06 02:46:37;;;;;;;11.70;3.50;;;7.50;99.90;;;;;;5050921;28;20077;-72
2022/02/06 02:49:05;;;;;;;12.40;3.60;;;7.50;99.90;;;;;;5033116;28;20021;-72
2022/02/06 02:51:36;;;;;;;12.87;3.53;;;7.50;99.90;;;;;;5050992;28;20032;-72
2022/02/06 02:54:09;;;;;;;11.93;3.60;;;7.50;99.90;;;;;;5033246;28;20029;-72
2022/02/06 02:59:28;;;;;;;14.03;4.40;;;7.50;99.90;;;;;;5050809;28;20044;-72
2022/02/06 03:02:00;;;;;;;11.17;2.83;;;7.40;99.90;;;;;;5032844;28;20143;-72
2022/02/06 03:04:26;;;;;;;11.63;3.07;;;7.50;99.90;;;;;;5050658;28;20032;-72
2022/02/06 03:06:52;;;;;;;11.93;3.10;;;7.50;99.90;;;;;;5050820;28;20524;-72
2022/02/06 03:09:20;;;;;;;13.03;3.10;;;7.50;99.90;;;;;;5050760;28;20521;-72
2022/02/06 03:11:46;;;;;;;8.77;2.37;;;7.50;99.90;;;;;;5054674;28;20052;-72
2022/02/06 03:14:20;;;;;;;8.77;2.60;;;7.50;99.90;;;;;;5036797;28;20029;-72
2022/02/06 03:16:55;;;;;;;16.83;3.33;;;7.50;99.90;;;;;;5054720;28;20033;-72
2022/02/06 03:19:21;;;;;;;11.77;2.47;;;7.50;99.90;;;;;;5054631;28;20025;-72
2022/02/06 03:21:47;;;;;;;13.10;3.20;;;7.50;99.90;;;;;;5036755;28;20136;-72
2022/02/06 03:26:43;;;;;;;9.85;2.78;;;7.50;99.90;;;;;;5054785;28;20393;-72
2022/02/06 03:29:09;;;;;;;11.10;2.53;;;7.50;99.90;;;;;;5054431;28;20040;-72
2022/02/06 03:31:37;;;;;;;9.60;2.50;;;7.50;99.90;;;;;;5036537;28;20140;-72
2022/02/06 03:34:03;;;;;;;14.50;2.90;;;7.50;99.90;;;;;;5054300;28;20051;-72
2022/02/06 03:36:29;;;;;;;10.30;3.27;;;7.50;99.90;;;;;;5054477;28;20057;-72
2022/02/06 03:38:56;;;;;;;10.80;2.70;;;7.50;99.90;;;;;;5054272;28;20124;-72
2022/02/06 03:41:24;;;;;;;11.97;2.60;;;7.40;99.90;;;;;;5054205;28;20087;-72
2022/02/06 03:44:04;;;;;;;9.53;2.50;;;7.50;99.90;;;;;;5036399;28;20065;-72
2022/02/06 03:46:35;;;;;;;9.47;2.77;;;7.50;99.90;;;;;;5054217;28;20049;-72
2022/02/06 03:51:35;;;;;;;10.40;2.80;;;7.40;99.90;;;;;;5036338;28;20511;-72
2022/02/06 03:54:03;;;;;;;8.60;2.20;;;7.50;99.90;;;;;;5053877;28;20051;-72
2022/02/06 03:56:32;;;;;;;10.17;2.87;;;7.50;99.90;;;;;;5053766;28;20032;-72
2022/02/06 03:58:59;;;;;;;11.37;2.07;;;7.50;99.90;;;;;;5036031;28;20025;-72
2022/02/06 04:01:25;;;;;;;9.47;2.40;;;7.50;99.90;;;;;;5036149;28;20163;-72
2022/02/06 04:03:51;;;;;;;7.90;2.33;;;7.50;99.90;;;;;;5053715;28;20053;-72
2022/02/06 04:06:16;;;;;;;11.57;2.70;;;7.50;99.90;;;;;;5053747;28;20112;-72
2022/02/06 04:08:43;;;;;;;8.40;2.50;;;7.40;99.90;;;;;;5053797;28;20485;-72
2022/02/06 04:11:17;;;;;;;7.43;2.10;;;7.40;99.90;;;;;;5035806;28;20041;-72
2022/02/06 04:14:06;;;;;;;10.80;2.57;;;7.40;99.90;;;;;;5053631;28;20033;-72
2022/02/06 04:16:40;;;;;;;9.00;2.50;;;7.40;99.90;;;;;;5035823;28;20478;-72
2022/02/06 04:19:27;;;;;;;11.27;2.73;;;7.40;99.90;;;;;;5035772;28;20025;-72
2022/02/06 04:21:54;;;;;;;7.10;2.07;;;7.40;99.90;;;;;;5052901;28;20049;-72
2022/02/06 04:24:20;;;;;;;7.90;2.23;;;7.40;99.90;;;;;;5053455;28;20123;-72
2022/02/06 04:26:46;;;;;;;9.77;2.57;;;7.50;99.90;;;;;;5035729;28;20025;-72
2022/02/06 04:29:12;;;;;;;7.17;2.60;;;7.40;99.90;;;;;;5053700;28;20413;-72
2022/02/06 04:31:40;;;;;;;9.97;3.03;;;7.40;99.90;;;;;;5053335;28;20074;-72
2022/02/06 04:34:07;;;;;;;12.43;2.73;;;7.50;99.90;;;;;;5053023;28;20033;-72
2022/02/06 04:36:46;;;;;;;10.83;2.67;;;7.40;99.90;;;;;;5053297;28;20057;-72
2022/02/06 04:39:37;;;;;;;11.93;3.00;;;7.40;99.90;;;;;;5053211;28;20044;-72
2022/02/06 05:24:52;;;;;;;10.53;2.70;;;7.40;99.90;;;;;;5052045;28;20433;-72
2022/02/06 05:30:04;;;;;;;9.05;3.08;;;7.40;99.90;;;;;;5052262;28;20029;-72
2022/02/06 05:32:57;;;;;;;8.27;2.70;;;7.40;99.90;;;;;;5051391;28;20036;-72
2022/02/06 05:35:24;;;;;;;9.20;2.60;;;7.40;99.90;;;;;;5052247;28;20029;-72
2022/02/06 05:37:51;;;;;;;9.20;2.97;;;7.40;99.90;;;;;;5052128;28;20021;-72
2022/02/06 05:40:17;;;;;;;9.90;2.50;;;7.40;99.90;;;;;;5052093;28;20025;-72
2022/02/06 05:42:43;;;;;;;9.40;2.20;;;7.50;99.90;;;;;;5052503;28;20075;-72
2022/02/06 05:45:10;;;;;;;7.63;2.27;;;7.40;99.90;;;;;;5051728;28;20071;-72
2022/02/06 05:47:36;;;;;;;9.70;2.50;;;7.40;99.90;;;;;;5051901;28;20116;-72
2022/02/06 05:50:04;;;;;;;11.53;2.80;;;7.50;99.90;;;;;;5051912;28;20497;-72
2022/02/06 05:52:31;;;;;;;9.07;2.30;;;7.40;99.90;;;;;;5033982;28;20087;-72
2022/02/06 05:57:25;;;;;;;7.60;2.25;;;7.50;99.90;;;;;;5027488;28;20045;-86
2022/02/06 05:59:51;;;;;;;10.07;2.50;;;7.40;99.90;;;;;;5031621;28;20048;-87
2022/02/06 06:02:17;;;;;;;7.60;2.30;;;7.50;99.90;;;;;;5030365;28;20037;-86
2022/02/06 06:04:43;;;;;;;9.80;2.50;;;7.40;99.90;;;;;;5030379;28;20386;-86
2022/02/06 06:07:09;;;;;;;6.77;2.20;;;7.50;99.90;;;;;;5049546;28;20032;-86
2022/02/06 06:09:35;;;;;;;7.03;2.60;;;7.50;99.90;;;;;;5049955;28;20025;-86
2022/02/06 06:12:01;;;;;;;7.77;2.30;;;7.50;99.90;;;;;;5033354;28;20028;-86
2022/02/06 06:14:30;;;;;;;9.10;2.27;;;7.50;99.90;;;;;;5051546;28;20021;-87
2022/02/06 06:16:56;;;;;;;;;;;7.50;99.90;;;;;;5033963;28;20036;-86
2022/02/06 06:19:25;;;;;;;5.67;2.10;;;7.50;99.90;;;;;;5033496;28;19904;-86
2022/02/06 06:21:55;;;;;;;8.17;2.10;;;7.50;99.90;;;;;;5051257;28;20024;-86
2022/02/06 06:24:24;;;;;;;7.13;2.20;;;7.50;99.90;;;;;;5051016;28;20025;-87
2022/02/06 06:26:50;;;;;;;7.47;2.40;;;7.50;99.90;;;;;;5049766;28;20370;-86
2022/02/06 06:29:19;;;;;;;7.57;2.50;;;7.50;99.90;;;;;;5033177;28;20033;-86
2022/02/06 06:31:47;;;;;;;7.57;2.33;;;7.50;99.90;;;;;;5033273;28;20025;-86
2022/02/06 06:34:12;;;;;;;9.17;2.60;;;7.60;99.90;;;;;;5050853;28;20032;-87
2022/02/06 06:36:38;;;;;;;5.90;2.30;;;7.60;99.90;;;;;;5050824;28;20086;-86
2022/02/06 06:39:20;;;;;;;3.90;2.00;;;7.60;99.90;;;;;;5032840;28;20017;-86
2022/02/06 06:41:46;;;;;;;6.80;2.57;;;7.50;99.90;;;;;;5050875;28;20025;-86
2022/02/06 06:44:14;;;;;;;7.90;2.57;;;7.60;99.90;;;;;;5050673;28;20017;-86
2022/02/06 06:46:40;;;;;;;12.30;3.20;;;7.50;99.90;;;;;;5050885;28;20018;-86
2022/02/06 06:49:06;;;;;;;11.17;3.13;;;7.60;99.90;;;;;;5050669;28;20032;-86
2022/02/06 06:51:45;;;;;;;17.93;5.43;;;7.60;99.90;;;;;;5032681;28;20029;-86
2022/02/06 06:54:15;;;;;;;9.03;3.90;;;7.60;99.90;;;;;;5032884;28;20547;-87
2022/02/06 06:56:59;;;;;;;11.97;4.27;;;7.60;99.90;;;;;;5050565;28;20036;-86
2022/02/06 07:02:42;;;;;;;7.40;3.13;;;7.60;99.90;;;;;;5050665;28;20049;-86
2022/02/06 07:04:58;;;;;;;;;;;7.70;99.90;;;;;;5045886;28;20400;-86
2022/02/06 07:07:28;;;;;;;10.03;2.60;;;7.70;99.90;;;;;;5016233;28;20382;-86
2022/02/06 07:10:07;;;;;;;11.53;3.07;;;7.70;99.90;;;;;;5033840;28;20047;-85
2022/02/06 07:12:42;;;;;;;5.70;2.03;;;7.60;99.90;;;;;;5049155;28;20025;-86
2022/02/06 07:15:10;;;;;;;5.63;1.90;;;7.60;99.90;;;;;;5048931;28;20021;-86
2022/02/06 07:17:36;;;;;;;7.47;1.97;;;7.60;99.90;;;;;;5032727;28;20086;-86
2022/02/06 07:20:03;;;;;;;6.97;2.03;;;7.70;99.90;;;;;;5050435;28;20021;-86
2022/02/06 07:22:39;;;;;;;3.80;1.77;;;7.60;99.90;;;;;;5050525;28;20083;-86
2022/02/06 07:25:06;;;;;;;8.83;2.67;;;7.60;99.90;;;;;;5050061;28;20032;-87
2022/02/06 07:27:36;;;;;;;7.47;2.43;;;7.70;99.90;;;;;;5032667;28;20033;-86
2022/02/06 07:30:03;;;;;;;;;;;7.70;99.90;;;;;;5032983;28;20033;-86
2022/02/06 07:32:32;;;;;;;5.70;2.10;;;7.70;99.90;;;;;;5032682;28;19916;-87
2022/02/06 07:34:58;;;;;;;6.40;1.80;;;7.70;99.90;;;;;;5050069;28;20366;-87
2022/02/06 07:37:24;;;;;;;10.63;2.53;;;7.70;99.90;;;;;;5050476;28;20138;-86
2022/02/06 07:39:50;;;;;;;8.03;2.60;;;7.70;99.90;;;;;;5050253;28;20078;-86
2022/02/06 07:42:16;;;;;;;10.10;2.60;;;7.70;99.90;;;;;;5049117;28;20112;-86
2022/02/06 07:44:49;;;;;;;8.67;1.97;;;7.60;99.90;;;;;;5048945;28;20481;-86
2022/02/06 07:47:19;;;;;;;5.57;2.00;;;7.70;99.90;;;;;;5032366;28;20032;-86
2022/02/06 07:49:49;;;;;;;8.23;2.23;;;7.80;99.90;;;;;;5050212;28;20029;-86
2022/02/06 07:52:17;;;;;;;9.50;3.33;;;7.80;99.90;;;;;;5032595;28;20025;-86
2022/02/06 07:54:44;;;;;;;10.43;2.73;;;7.70;99.90;;;;;;5050077;28;20029;-86
2022/02/06 07:57:09;;;;;;;8.57;2.50;;;7.70;99.90;;;;;;5034963;28;20275;-86
2022/02/06 07:59:36;;;;;;;11.17;4.00;;;7.80;99.90;;;;;;5054017;28;20025;-86
2022/02/06 08:02:04;;;;;;;12.80;4.53;;;7.80;99.90;;;;;;5035883;28;20078;-86
2022/02/06 08:04:30;;;;;;;11.73;4.43;;;7.80;99.90;;;;;;5035637;28;20025;-86
2022/02/06 08:07:00;;;;;;;14.27;4.33;;;7.80;99.90;;;;;;5053996;28;20033;-86
2022/02/06 08:09:43;;;;;;;14.97;5.47;;;7.80;99.90;;;;;;5054091;28;20036;-86
2022/02/06 08:12:10;;;;;;;14.03;5.03;;;7.80;99.90;;;;;;5035432;28;20477;-87
2022/02/06 08:14:50;;;;;;;15.87;4.93;;;7.80;99.90;;;;;;5053391;28;20058;-86
2022/02/06 08:17:26;;;;;;;15.57;4.63;;;7.80;99.90;;;;;;5053413;28;20025;-87
2022/02/06 08:19:53;;;;;;;14.33;6.30;;;7.80;99.90;;;;;;5035687;28;20124;-86
2022/02/06 08:22:20;;;;;;;14.70;6.60;;;7.80;99.90;;;;;;5053375;28;20041;-87
2022/02/06 08:24:47;;;;;;;14.03;5.60;;;7.80;99.90;;;;;;5053162;28;20235;-87
2022/02/06 08:27:17;;;;;;;12.90;5.40;;;7.80;99.90;;;;;;5035838;28;20463;-87
2022/02/06 08:29:45;;;;;;;13.73;5.03;;;7.80;99.90;;;;;;5053090;28;20075;-86
2022/02/06 08:32:15;;;;;;;13.27;6.27;;;7.90;99.90;;;;;;5053047;28;20021;-86
2022/02/06 08:34:42;;;;;;;10.73;4.53;;;7.90;99.90;;;;;;5018743;28;20108;-87
2022/02/06 08:37:09;;;;;;;9.00;4.13;;;7.90;99.90;;;;;;5051916;28;20032;-86
2022/02/06 08:39:36;;;;;;;8.43;4.27;;;7.90;99.90;;;;;;5053193;28;20032;-86
2022/02/06 08:42:06;;;;;;;12.03;4.73;;;7.90;99.90;;;;;;5035241;28;20025;-86
2022/02/06 08:44:33;;;;;;;11.80;5.80;;;7.90;99.90;;;;;;5035208;28;20041;-86
2022/02/06 08:46:59;;;;;;;17.33;5.83;;;7.90;99.90;;;;;;5052934;28;20021;-86
2022/02/06 08:49:25;;;;;;;12.33;4.57;;;7.90;99.90;;;;;;5052948;28;20106;-86
2022/02/06 08:51:52;;;;;;;12.77;5.37;;;8.00;99.90;;;;;;5052889;28;20108;-86
2022/02/06 08:54:20;;;;;;;11.93;5.23;;;8.00;99.90;;;;;;5052555;28;20025;-86
2022/02/06 08:56:46;;;;;;;12.17;5.30;;;8.00;99.90;;;;;;5034825;28;20032;-86
2022/02/06 08:59:12;;;;;;;9.90;3.50;;;8.00;99.90;;;;;;5053071;28;20040;-86
2022/02/06 09:01:38;;;;;;;8.50;3.10;;;8.00;99.90;;;;;;5051463;28;20068;-86
2022/02/06 09:04:05;;;;;;;7.47;3.23;;;8.00;99.90;;;;;;5052862;28;20028;-86
2022/02/06 09:06:31;;;;;;;9.67;4.73;;;8.00;99.90;;;;;;5034662;28;20025;-86
2022/02/06 09:08:59;;;;;;;11.23;4.47;;;8.00;99.90;;;;;;5052064;28;20029;-86
2022/02/06 09:11:29;;;;;;;10.63;4.13;;;8.00;99.90;;;;;;5034706;28;20409;-86
2022/02/06 09:13:55;;;;;;;;;;;8.10;99.90;;;;;;5052677;28;20037;-86
2022/02/06 09:16:25;;;;;;;10.37;4.53;;;8.10;99.90;;;;;;5052343;28;19991;-86
2022/02/06 09:18:50;;;;;;;14.87;4.93;;;8.10;99.90;;;;;;5052480;28;20029;-86
2022/02/06 09:21:16;;;;;;;10.13;4.97;;;8.00;99.90;;;;;;5052686;28;20535;-86
2022/02/06 09:23:43;;;;;;;18.90;7.50;;;8.10;99.90;;;;;;5034102;28;20067;-87
2022/02/06 09:26:09;;;;;;;12.50;6.87;;;8.10;99.90;;;;;;5052266;28;20052;-86
2022/02/06 09:28:35;;;;;;;11.80;5.70;;;8.20;99.90;;;;;;5052058;28;20481;-86
2022/02/06 09:31:03;;;;;;;13.43;5.77;;;8.10;99.90;;;;;;5051202;28;20045;-87
2022/02/06 09:35:54;;;;;;;12.47;6.07;;;8.20;99.90;;;;;;5050715;28;20108;-86
2022/02/06 09:38:20;;;;;;;11.33;4.73;;;8.20;99.90;;;;;;5051740;28;20078;-86
2022/02/06 09:40:52;;;;;;;5.25;2.55;;;8.10;99.90;;;;;;5034647;28;20029;-87
2022/02/06 09:43:21;;;;;;;5.53;2.60;;;8.20;99.90;;;;;;5017459;28;20106;-87
2022/02/06 09:45:48;;;;;;;9.63;3.23;;;8.20;99.90;;;;;;5052158;28;20057;-86
2022/02/06 09:48:15;;;;;;;11.97;3.77;;;8.20;99.90;;;;;;5033913;28;20040;-86
2022/02/06 09:50:47;;;;;;;9.27;4.40;;;8.20;99.90;;;;;;5017219;28;20025;-86
2022/02/06 09:53:13;;;;;;;11.60;6.70;;;8.30;99.90;;;;;;5051374;28;20082;-87
2022/02/06 09:55:39;;;;;;;12.33;5.23;;;8.20;99.90;;;;;;5051367;28;20493;-87
2022/02/06 10:00:38;;;;;;;7.87;3.00;;;8.20;99.90;;;;;;5051764;28;20025;-87
2022/02/06 10:03:11;;;;;;;6.38;2.67;;;8.20;99.90;;;;;;5051613;28;20052;-86
2022/02/06 10:05:41;;;;;;;5.13;1.97;;;8.20;99.90;;;;;;5051752;28;20478;-86
2022/02/06 10:08:31;;;;;;;6.03;2.37;;;8.20;99.90;;;;;;5033610;28;20033;-87
2022/02/06 10:11:14;;;;;;;5.20;2.07;;;8.10;99.90;;;;;;5033579;28;20039;-86
2022/02/06 10:13:43;;;;;;;5.00;2.13;;;8.10;99.90;;;;;;5033141;28;20427;-87
2022/02/06 10:16:10;;;;;;;;;;;8.10;99.90;;;;;;5033880;28;20082;-87
2022/02/06 10:18:42;;;;;;;4.90;1.77;;;8.10;99.90;;;;;;5051179;28;19915;-87
2022/02/06 10:21:13;;;;;;;2.80;1.20;;;8.00;99.90;;;;;;5051284;28;20056;-87
2022/02/06 10:23:57;;;;;;;6.63;1.83;;;8.00;99.90;;;;;;5050962;28;20055;-88
2022/02/06 10:26:42;;;;;;;4.13;1.70;;;8.00;99.90;;;;;;5033384;28;20062;-87
2022/02/06 10:31:55;;;;;;;3.83;1.17;;;8.00;99.90;;;;;;5051082;28;20404;-87
2022/02/06 10:34:35;;;;;;;2.50;0.77;;;8.00;99.90;;;;;;5033223;28;20029;-87
2022/02/06 10:37:21;;;;;;;3.87;1.03;;;8.00;99.90;;;;;;5050862;28;20503;-87
2022/02/06 10:40:07;;;;;;;2.80;0.93;;;8.00;99.90;;;;;;5050808;28;20060;-87
2022/02/06 10:42:41;;;;;;;3.17;1.23;;;8.00;99.90;;;;;;5016671;28;20510;-87
2022/02/06 10:45:16;;;;;;;3.03;1.13;;;8.00;99.90;;;;;;5032722;28;20489;-87
2022/02/06 10:47:43;;;;;;;3.27;1.00;;;8.00;99.90;;;;;;5050926;28;20066;-86
2022/02/06 10:50:18;;;;;;;4.23;1.77;;;8.00;99.90;;;;;;5033097;28;20464;-87
2022/02/06 10:52:45;;;;;;;4.87;1.50;;;8.00;99.90;;;;;;5032848;28;20041;-87
2022/02/06 10:55:13;;;;;;;4.43;1.60;;;8.00;99.90;;;;;;5050314;28;20504;-86
2022/02/06 10:57:57;;;;;;;4.38;2.00;;;8.00;99.90;;;;;;5050544;28;20055;-87
2022/02/06 11:00:35;;;;;;;9.57;4.13;;;8.00;99.90;;;;;;5050659;28;20135;-87
2022/02/06 11:03:22;;;;;;;6.63;2.63;;;8.00;99.90;;;;;;5032966;28;20079;-87
2022/02/06 11:05:52;;;;;;;5.22;1.80;;;8.10;99.90;;;;;;5050473;28;20123;-87
2022/02/06 11:08:31;;;;;;;3.80;1.70;;;8.00;99.90;;;;;;5032787;28;20033;-87
2022/02/06 11:11:05;;;;;;;4.60;2.08;;;8.00;99.90;;;;;;5033234;28;20547;-87
2022/02/06 11:13:39;;;;;;;5.20;2.40;;;8.10;99.90;;;;;;5032596;28;20128;-87
2022/02/06 11:16:18;;;;;;;4.23;1.40;;;8.00;99.90;;;;;;5049306;28;20396;-87
2022/02/06 11:18:59;;;;;;;3.97;1.30;;;8.00;99.90;;;;;;5032683;28;20033;-87
2022/02/06 11:21:27;;;;;;;2.00;0.80;;;8.00;99.90;;;;;;5032805;28;20371;-87
2022/02/06 11:23:58;;;;;;;1.17;0.60;;;8.00;99.90;;;;;;5032691;28;20080;-87
2022/02/06 11:26:29;;;;;;;3.90;0.80;;;8.00;99.90;;;;;;5032826;28;20024;-87
2022/02/06 11:28:59;;;;;;;2.30;0.80;;;8.00;99.90;;;;;;5050443;28;20442;-87
2022/02/06 11:31:46;;;;;;;;;;;;;;;;;;;;;
2022/02/06 11:34:22;;;;;;;2.00;0.90;;;7.90;99.90;;;;;;5054223;28;20064;-87
2022/02/06 11:46:18;;;;;;;2.43;1.13;;;8.00;99.90;;;;;;5054119;28;20029;-88
2022/02/06 11:48:48;;;;;;;2.50;1.10;;;8.00;99.90;;;;;;5036780;28;20025;-87
2022/02/06 11:51:16;;;;;;;4.83;1.70;;;8.00;99.90;;;;;;5036249;28;20025;-87
2022/02/06 11:53:42;;;;;;;3.27;1.70;;;8.00;99.90;;;;;;5035813;28;20033;-88
2022/02/06 11:56:22;;;;;;;7.20;2.60;;;8.00;99.90;;;;;;5040352;23;20199;-87
2022/02/06 11:58:52;;;;;;;6.80;2.40;;;8.00;99.90;;;;;;5012803;28;20486;-86
2022/02/06 12:01:17;;;;;;;5.63;2.00;;;8.00;99.90;;;;;;5014198;28;20029;-87
2022/02/06 12:03:53;;;;;;;3.37;1.50;;;8.00;99.90;;;;;;5013892;28;20036;-87
2022/02/06 12:06:21;;;;;;;4.37;1.47;;;8.00;99.90;;;;;;5013880;28;20104;-86
2022/02/06 12:08:58;;;;;;;4.93;2.10;;;8.00;99.90;;;;;;4996507;28;20038;-86
2022/02/06 12:11:25;;;;;;;8.73;2.13;;;8.00;99.90;;;;;;5013977;28;20065;-88
2022/02/06 12:14:12;;;;;;;6.43;2.63;;;8.00;99.90;;;;;;5012280;28;20034;-87
2022/02/06 12:16:51;;;;;;;8.07;3.53;;;8.00;99.90;;;;;;5013642;28;20022;-87
2022/02/06 12:19:28;;;;;;;10.63;4.50;;;8.00;99.90;;;;;;5014024;28;20029;-87
2022/02/06 12:21:58;;;;;;;5.60;2.20;;;8.00;99.90;;;;;;5013785;28;20034;-87
2022/02/06 12:24:43;;;;;;;7.40;2.57;;;8.00;99.90;;;;;;5012258;28;20054;-87
2022/02/06 12:27:26;;;;;;;5.63;3.00;;;8.10;99.90;;;;;;5013457;28;20033;-87
2022/02/06 12:30:07;;;;;;;8.03;3.70;;;8.00;99.90;;;;;;4996134;28;20524;-87
2022/02/06 12:32:35;;;;;;;8.37;3.97;;;8.10;99.90;;;;;;5013664;28;20084;-87
2022/02/06 12:37:52;;;;;;;11.30;5.00;;;8.10;99.90;;;;;;5013402;28;20033;-87
2022/02/06 12:40:24;;;;;;;8.43;3.63;;;8.20;99.90;;;;;;5012189;28;20097;-87
2022/02/06 12:42:58;;;;;;;7.17;2.90;;;8.30;99.90;;;;;;4995696;28;20030;-87
2022/02/06 12:45:25;;;;;;;5.13;2.07;;;8.30;99.90;;;;;;4995558;28;20026;-87
2022/02/06 12:47:56;;;;;;;5.07;1.23;;;8.30;99.90;;;;;;4995647;28;20029;-87
2022/02/06 12:50:27;;;;;;;7.10;1.37;;;8.30;99.90;;;;;;5011856;28;20447;-87
2022/02/06 12:52:54;;;;;;;2.30;0.73;;;8.30;99.90;;;;;;5013021;28;20034;-86
2022/02/06 12:55:21;;;;;;;2.43;0.70;;;8.30;99.90;;;;;;5011602;28;20026;-87
2022/02/06 12:57:52;;;;;;;1.87;0.63;;;8.30;99.90;;;;;;5012902;28;20394;-87
2022/02/06 13:00:26;;;;;;;2.37;1.00;;;8.30;99.90;;;;;;4979181;28;20037;-87
2022/02/06 13:03:31;;;;;;;2.63;1.10;;;8.40;99.90;;;;;;5012968;28;20033;-87
2022/02/06 13:05:58;;;;;;;2.23;0.83;;;8.50;99.90;;;;;;4995244;28;20487;-87
2022/02/06 13:08:24;;;;;;;3.23;0.90;;;8.50;99.90;;;;;;5012965;28;20033;-87
2022/02/06 13:10:57;;;;;;;1.87;0.50;;;8.50;99.90;;;;;;5012605;28;20026;-87
2022/02/06 13:13:31;;;;;;;1.10;0.40;;;8.20;99.90;;;;;;5012710;28;20030;-87
2022/02/06 13:16:14;;;;;;;2.60;0.50;;;8.00;99.90;;;;;;4995292;28;20033;-87
2022/02/06 13:21:22;;;;;;;6.43;2.50;;;7.60;99.90;;;;;;5012771;28;20041;-87
2022/02/06 13:26:35;;;;;;;3.20;0.90;;;7.50;99.90;;;;;;5011377;28;20429;-87
2022/02/06 13:29:24;;;;;;;2.60;0.90;;;7.30;99.90;;;;;;5011191;28;20030;-87
2022/02/06 13:34:56;;;;;;;2.53;0.90;;;7.30;99.90;;;;;;5011208;28;20406;-86
2022/02/06 13:37:42;;;;;;;1.50;0.60;;;7.20;99.90;;;;;;5012258;28;20037;-87
2022/02/06 13:40:16;;;;;;;3.17;0.97;;;7.20;99.90;;;;;;4994497;28;20037;-86
2022/02/06 13:43:24;;;;;;;4.07;1.17;;;7.20;99.90;;;;;;5012416;28;20065;-86
2022/02/06 13:45:55;;;;;;;4.53;1.30;;;7.20;99.90;;;;;;4951260;28;20156;-86
2022/02/06 13:48:23;;;;;;;2.97;0.90;;;7.10;99.90;;;;;;4986871;28;20140;-86
2022/02/06 13:50:55;;;;;;;1.53;0.63;;;7.10;99.90;;;;;;5010758;28;20116;-87
2022/02/06 13:53:25;;;;;;;0.80;0.57;;;7.20;99.90;;;;;;5009909;28;20037;-86
2022/02/06 13:55:57;;;;;;;3.00;1.05;;;7.20;99.90;;;;;;4994222;28;20026;-86
2022/02/06 13:58:25;;;;;;;1.70;0.80;;;7.20;99.90;;;;;;5012013;28;20037;-86
2022/02/06 14:00:55;;;;;;;2.80;0.87;;;7.20;99.90;;;;;;5011623;28;20034;-86
2022/02/06 14:03:22;;;;;;;3.23;0.90;;;7.20;99.90;;;;;;4994279;28;20053;-86
2022/02/06 14:05:52;;;;;;;3.13;0.80;;;7.10;99.90;;;;;;5011700;28;20474;-87
2022/02/06 14:08:20;;;;;;;4.53;1.90;;;7.10;99.90;;;;;;5011801;28;20034;-86
2022/02/06 14:11:07;;;;;;;2.50;0.80;;;7.20;99.90;;;;;;5011664;28;20085;-86
2022/02/06 14:13:33;;;;;;;2.13;0.90;;;7.20;99.90;;;;;;4993832;28;20033;-86
2022/02/06 14:16:10;;;;;;;2.73;0.80;;;7.30;99.90;;;;;;5011571;28;20018;-86
2022/02/06 14:18:50;;;;;;;4.73;0.90;;;7.30;99.90;;;;;;5011759;28;20386;-86
2022/02/06 14:21:17;;;;;;;4.03;0.93;;;7.30;99.90;;;;;;4994026;28;20040;-86
2022/02/06 14:23:43;;;;;;;3.33;0.80;;;7.30;99.90;;;;;;4977535;28;20052;-86
2022/02/06 14:26:14;;;;;;;3.57;0.80;;;7.30;99.90;;;;;;5011570;28;20033;-87
2022/02/06 14:28:48;;;;;;;4.03;0.80;;;7.40;99.90;;;;;;5011565;28;20029;-86
2022/02/06 14:31:25;;;;;;;3.17;0.67;;;7.40;99.90;;;;;;5011502;28;20030;-86
2022/02/06 14:33:51;;;;;;;3.40;0.73;;;7.40;99.90;;;;;;4993538;28;20034;-87
2022/02/06 14:36:22;;;;;;;4.73;1.10;;;7.40;99.90;;;;;;5011241;28;20065;-87
2022/02/06 14:38:57;;;;;;;3.77;1.00;;;7.40;99.90;;;;;;5011193;28;20379;-86
2022/02/06 14:41:35;;;;;;;3.57;0.93;;;7.40;99.90;;;;;;5011430;28;20030;-86
2022/02/06 14:44:05;;;;;;;1.80;0.70;;;7.50;99.90;;;;;;5010999;28;20490;-86
2022/02/06 14:46:33;;;;;;;2.90;1.00;;;7.40;99.90;;;;;;5011057;28;20482;-86
2022/02/06 14:49:02;;;;;;;4.97;1.03;;;7.50;99.90;;;;;;5011133;28;20056;-86
2022/02/06 14:51:31;;;;;;;6.53;1.10;;;7.50;99.90;;;;;;4993680;28;20037;-86
2022/02/06 14:54:00;;;;;;;;;;;7.50;99.90;;;;;;5011212;28;20034;-87
2022/02/06 14:56:30;;;;;;;2.83;0.90;;;7.50;99.90;;;;;;5010811;28;19914;-86
2022/02/06 14:58:57;;;;;;;4.57;1.10;;;7.50;99.90;;;;;;5010825;28;20037;-86
2022/02/06 15:01:23;;;;;;;3.57;1.40;;;7.50;99.90;;;;;;5010907;28;20053;-87
2022/02/06 15:03:49;;;;;;;7.80;1.20;;;7.60;99.90;;;;;;4993412;28;20076;-86
2022/02/06 15:06:15;;;;;;;4.30;1.30;;;7.60;99.90;;;;;;5014383;28;20037;-86
2022/02/06 15:08:41;;;;;;;4.37;1.00;;;7.50;99.90;;;;;;5015244;28;20057;-86
2022/02/06 15:11:06;;;;;;;3.73;1.00;;;7.50;99.90;;;;;;5014888;28;20033;-86
2022/02/06 15:13:34;;;;;;;3.83;1.27;;;7.50;99.90;;;;;;5014665;28;20037;-86
2022/02/06 15:16:15;;;;;;;5.17;1.00;;;7.50;99.90;;;;;;5014721;28;20029;-87
2022/02/06 15:18:47;;;;;;;4.80;0.90;;;7.60;99.90;;;;;;5013795;28;20442;-86
2022/02/06 15:21:12;;;;;;;3.43;0.87;;;7.60;99.90;;;;;;5014990;28;20038;-86
2022/02/06 15:23:40;;;;;;;3.77;1.00;;;7.60;99.90;;;;;;5014638;28;20034;-86
2022/02/06 15:26:07;;;;;;;8.03;1.47;;;7.60;99.90;;;;;;4997044;28;20393;-86
2022/02/06 15:28:33;;;;;;;6.03;1.00;;;7.60;99.90;;;;;;5014760;28;20052;-86
2022/02/06 15:30:59;;;;;;;4.60;1.10;;;7.60;99.90;;;;;;4997219;28;20115;-86
2022/02/06 15:33:25;;;;;;;5.40;1.90;;;7.80;99.90;;;;;;5014298;28;20070;-86
2022/02/06 15:35:51;;;;;;;5.97;1.70;;;7.70;99.90;;;;;;5014464;28;20033;-86
2022/02/06 15:38:20;;;;;;;4.93;1.23;;;7.70;99.90;;;;;;5014459;28;20026;-86
2022/02/06 15:40:47;;;;;;;6.33;1.93;;;7.70;99.90;;;;;;5014588;28;20037;-86
2022/02/06 15:43:13;;;;;;;5.07;1.37;;;7.70;99.90;;;;;;5014357;28;20628;-86
2022/02/06 15:45:42;;;;;;;4.10;1.00;;;7.70;99.90;;;;;;5014485;28;20026;-86
2022/02/06 15:48:08;;;;;;;4.75;1.15;;;7.70;99.90;;;;;;5014226;28;20570;-86
2022/02/06 15:50:35;;;;;;;6.90;1.10;;;7.70;99.90;;;;;;5014291;28;20072;-87
2022/02/06 15:53:00;;;;;;;6.40;1.10;;;7.60;99.90;;;;;;5014029;28;20054;-86
2022/02/06 15:55:26;;;;;;;7.00;1.40;;;7.70;99.90;;;;;;5013756;28;20061;-86
2022/02/06 15:57:52;;;;;;;5.27;1.27;;;7.60;99.90;;;;;;4996825;28;20029;-86